sensor_id;sensor_type;location;lat;lon;timestamp;P1;durP1;ratioP1;P2;durP2;ratioP2
11921;SDS011;6021;51.182;3.160;2022-10-31T00:01:31;5.60;;;5.10;;
11921;SDS011;6021;51.182;3.160;2022-10-31T00:04:01;6.50;;;5.50;;
11921;SDS011;6021;51.182;3.160;2022-10-31T00:06:30;6.77;;;5.67;;
11921;SDS011;6021;51.182;3.160;2022-10-31T00:09:00;6.10;;;5.23;;
11921;SDS011;6021;51.182;3.160;2022-10-31T00:11:30;5.43;;;4.93;;
11921;SDS011;6021;51.182;3.160;2022-10-31T00:13:58;5.43;;;4.93;;
11921;SDS011;6021;51.182;3.160;2022-10-31T00:16:27;4.93;;;4.53;;
11921;SDS011;6021;51.182;3.160;2022-10-31T00:18:57;5.80;;;4.80;;
11921;SDS011;6021;51.182;3.160;2022-10-31T00:21:28;6.93;;;4.90;;
11921;SDS011;6021;51.182;3.160;2022-10-31T00:23:57;6.13;;;5.17;;
11921;SDS011;6021;51.182;3.160;2022-10-31T00:26:27;4.97;;;4.47;;
11921;SDS011;6021;51.182;3.160;2022-10-31T00:28:57;5.70;;;5.20;;
11921;SDS011;6021;51.182;3.160;2022-10-31T00:31:25;5.40;;;4.90;;
11921;SDS011;6021;51.182;3.160;2022-10-31T00:33:54;7.43;;;5.60;;
11921;SDS011;6021;51.182;3.160;2022-10-31T00:36:23;5.60;;;5.10;;
11921;SDS011;6021;51.182;3.160;2022-10-31T00:38:51;5.57;;;5.07;;
11921;SDS011;6021;51.182;3.160;2022-10-31T00:41:19;6.17;;;5.57;;
11921;SDS011;6021;51.182;3.160;2022-10-31T00:43:48;6.17;;;5.57;;
11921;SDS011;6021;51.182;3.160;2022-10-31T00:46:16;6.27;;;5.63;;
11921;SDS011;6021;51.182;3.160;2022-10-31T00:48:44;6.47;;;5.83;;
11921;SDS011;6021;51.182;3.160;2022-10-31T00:51:13;7.43;;;5.90;;
11921;SDS011;6021;51.182;3.160;2022-10-31T00:53:41;5.47;;;4.93;;
11921;SDS011;6021;51.182;3.160;2022-10-31T00:56:09;6.67;;;5.50;;
11921;SDS011;6021;51.182;3.160;2022-10-31T00:58:38;6.00;;;5.40;;
11921;SDS011;6021;51.182;3.160;2022-10-31T01:01:06;7.00;;;5.73;;
11921;SDS011;6021;51.182;3.160;2022-10-31T01:03:34;5.97;;;5.37;;
11921;SDS011;6021;51.182;3.160;2022-10-31T01:06:09;5.10;;;4.60;;
11921;SDS011;6021;51.182;3.160;2022-10-31T01:08:38;7.77;;;5.20;;
11921;SDS011;6021;51.182;3.160;2022-10-31T01:11:08;5.60;;;5.03;;
11921;SDS011;6021;51.182;3.160;2022-10-31T01:13:38;5.97;;;5.00;;
11921;SDS011;6021;51.182;3.160;2022-10-31T01:16:08;5.63;;;5.00;;
11921;SDS011;6021;51.182;3.160;2022-10-31T01:18:39;6.00;;;4.90;;
11921;SDS011;6021;51.182;3.160;2022-10-31T01:21:09;6.30;;;5.17;;
11921;SDS011;6021;51.182;3.160;2022-10-31T01:23:48;6.60;;;5.07;;
11921;SDS011;6021;51.182;3.160;2022-10-31T01:26:18;7.40;;;6.10;;
11921;SDS011;6021;51.182;3.160;2022-10-31T01:28:59;7.10;;;5.87;;
11921;SDS011;6021;51.182;3.160;2022-10-31T01:31:30;7.30;;;6.20;;
11921;SDS011;6021;51.182;3.160;2022-10-31T01:34:00;7.83;;;6.03;;
11921;SDS011;6021;51.182;3.160;2022-10-31T01:36:30;6.80;;;6.10;;
11921;SDS011;6021;51.182;3.160;2022-10-31T01:39:04;7.77;;;6.07;;
11921;SDS011;6021;51.182;3.160;2022-10-31T01:41:35;6.40;;;5.80;;
11921;SDS011;6021;51.182;3.160;2022-10-31T01:46:50;7.97;;;7.17;;
11921;SDS011;6021;51.182;3.160;2022-10-31T01:49:38;8.07;;;7.23;;
11921;SDS011;6021;51.182;3.160;2022-10-31T01:54:53;8.10;;;7.23;;
11921;SDS011;6021;51.182;3.160;2022-10-31T01:57:23;8.00;;;7.20;;
11921;SDS011;6021;51.182;3.160;2022-10-31T01:59:53;7.83;;;7.03;;
11921;SDS011;6021;51.182;3.160;2022-10-31T02:02:24;7.23;;;6.53;;
11921;SDS011;6021;51.182;3.160;2022-10-31T02:04:54;7.37;;;6.63;;
11921;SDS011;6021;51.182;3.160;2022-10-31T02:07:25;9.10;;;7.30;;
11921;SDS011;6021;51.182;3.160;2022-10-31T02:10:04;8.10;;;7.30;;
11921;SDS011;6021;51.182;3.160;2022-10-31T02:12:32;10.30;;;7.50;;
11921;SDS011;6021;51.182;3.160;2022-10-31T02:15:03;7.87;;;7.00;;
11921;SDS011;6021;51.182;3.160;2022-10-31T02:17:32;7.97;;;7.17;;
11921;SDS011;6021;51.182;3.160;2022-10-31T02:20:05;7.90;;;7.07;;
11921;SDS011;6021;51.182;3.160;2022-10-31T02:37:00;8.07;;;5.97;;
11921;SDS011;6021;51.182;3.160;2022-10-31T02:42:17;7.60;;;5.83;;
11921;SDS011;6021;51.182;3.160;2022-10-31T02:44:57;7.10;;;5.90;;
11921;SDS011;6021;51.182;3.160;2022-10-31T02:47:28;6.40;;;5.80;;
11921;SDS011;6021;51.182;3.160;2022-10-31T02:50:00;6.87;;;5.87;;
11921;SDS011;6021;51.182;3.160;2022-10-31T02:52:34;8.03;;;6.43;;
11921;SDS011;6021;51.182;3.160;2022-10-31T02:55:39;6.77;;;6.07;;
11921;SDS011;6021;51.182;3.160;2022-10-31T02:58:08;6.30;;;5.70;;
11921;SDS011;6021;51.182;3.160;2022-10-31T03:00:44;6.50;;;5.90;;
11921;SDS011;6021;51.182;3.160;2022-10-31T03:08:30;6.33;;;5.40;;
11921;SDS011;6021;51.182;3.160;2022-10-31T03:11:07;5.80;;;5.30;;
11921;SDS011;6021;51.182;3.160;2022-10-31T03:19:19;7.03;;;6.10;;
11921;SDS011;6021;51.182;3.160;2022-10-31T03:21:59;7.53;;;6.73;;
11921;SDS011;6021;51.182;3.160;2022-10-31T03:24:36;7.13;;;6.43;;
11921;SDS011;6021;51.182;3.160;2022-10-31T03:27:07;7.03;;;6.33;;
11921;SDS011;6021;51.182;3.160;2022-10-31T03:29:38;7.30;;;6.40;;
11921;SDS011;6021;51.182;3.160;2022-10-31T03:32:08;8.57;;;6.50;;
11921;SDS011;6021;51.182;3.160;2022-10-31T03:34:42;8.43;;;6.57;;
11921;SDS011;6021;51.182;3.160;2022-10-31T03:37:14;8.97;;;7.20;;
11921;SDS011;6021;51.182;3.160;2022-10-31T03:39:44;8.23;;;7.43;;
11921;SDS011;6021;51.182;3.160;2022-10-31T03:42:16;9.53;;;8.43;;
11921;SDS011;6021;51.182;3.160;2022-10-31T03:45:00;8.23;;;7.37;;
11921;SDS011;6021;51.182;3.160;2022-10-31T03:47:26;9.03;;;7.80;;
11921;SDS011;6021;51.182;3.160;2022-10-31T03:49:54;11.77;;;8.80;;
11921;SDS011;6021;51.182;3.160;2022-10-31T03:55:10;10.57;;;9.37;;
11921;SDS011;6021;51.182;3.160;2022-10-31T03:57:53;11.53;;;9.33;;
11921;SDS011;6021;51.182;3.160;2022-10-31T04:00:26;9.53;;;8.63;;
11921;SDS011;6021;51.182;3.160;2022-10-31T04:03:05;11.03;;;9.93;;
11921;SDS011;6021;51.182;3.160;2022-10-31T04:05:35;11.30;;;9.60;;
11921;SDS011;6021;51.182;3.160;2022-10-31T04:08:07;11.50;;;9.73;;
11921;SDS011;6021;51.182;3.160;2022-10-31T04:10:37;9.83;;;8.67;;
11921;SDS011;6021;51.182;3.160;2022-10-31T04:13:08;11.47;;;8.50;;
11921;SDS011;6021;51.182;3.160;2022-10-31T04:15:38;9.47;;;8.57;;
11921;SDS011;6021;51.182;3.160;2022-10-31T04:18:10;10.40;;;8.73;;
11921;SDS011;6021;51.182;3.160;2022-10-31T04:20:39;10.90;;;9.40;;
11921;SDS011;6021;51.182;3.160;2022-10-31T04:25:49;11.50;;;10.30;;
11921;SDS011;6021;51.182;3.160;2022-10-31T04:28:17;11.83;;;10.37;;
11921;SDS011;6021;51.182;3.160;2022-10-31T04:30:45;10.40;;;9.40;;
11921;SDS011;6021;51.182;3.160;2022-10-31T04:33:14;10.60;;;9.50;;
11921;SDS011;6021;51.182;3.160;2022-10-31T04:35:42;11.10;;;10.00;;
11921;SDS011;6021;51.182;3.160;2022-10-31T04:38:11;13.30;;;10.57;;
11921;SDS011;6021;51.182;3.160;2022-10-31T04:40:39;11.67;;;10.50;;
11921;SDS011;6021;51.182;3.160;2022-10-31T04:43:07;10.83;;;9.63;;
11921;SDS011;6021;51.182;3.160;2022-10-31T04:45:36;10.37;;;9.27;;
11921;SDS011;6021;51.182;3.160;2022-10-31T04:48:05;10.17;;;9.07;;
11921;SDS011;6021;51.182;3.160;2022-10-31T04:50:33;11.83;;;9.63;;
11921;SDS011;6021;51.182;3.160;2022-10-31T04:53:01;10.77;;;9.67;;
11921;SDS011;6021;51.182;3.160;2022-10-31T04:55:30;10.90;;;9.60;;
11921;SDS011;6021;51.182;3.160;2022-10-31T04:57:58;12.43;;;9.83;;
11921;SDS011;6021;51.182;3.160;2022-10-31T05:00:27;11.77;;;9.93;;
11921;SDS011;6021;51.182;3.160;2022-10-31T05:02:56;13.03;;;10.63;;
11921;SDS011;6021;51.182;3.160;2022-10-31T05:05:30;10.97;;;9.77;;
11921;SDS011;6021;51.182;3.160;2022-10-31T05:07:58;10.17;;;9.10;;
11921;SDS011;6021;51.182;3.160;2022-10-31T05:10:28;10.03;;;9.03;;
11921;SDS011;6021;51.182;3.160;2022-10-31T05:12:58;11.77;;;9.13;;
11921;SDS011;6021;51.182;3.160;2022-10-31T05:15:28;9.53;;;8.40;;
11921;SDS011;6021;51.182;3.160;2022-10-31T05:17:57;8.53;;;7.73;;
11921;SDS011;6021;51.182;3.160;2022-10-31T05:20:27;8.47;;;7.53;;
11921;SDS011;6021;51.182;3.160;2022-10-31T05:22:57;9.03;;;8.23;;
11921;SDS011;6021;51.182;3.160;2022-10-31T05:25:27;7.93;;;7.20;;
11921;SDS011;6021;51.182;3.160;2022-10-31T05:27:56;7.67;;;6.90;;
11921;SDS011;6021;51.182;3.160;2022-10-31T05:30:26;8.20;;;7.40;;
11921;SDS011;6021;51.182;3.160;2022-10-31T05:32:55;8.67;;;7.70;;
11921;SDS011;6021;51.182;3.160;2022-10-31T05:35:30;10.97;;;9.37;;
11921;SDS011;6021;51.182;3.160;2022-10-31T05:37:56;9.00;;;8.10;;
11921;SDS011;6021;51.182;3.160;2022-10-31T05:40:25;9.07;;;7.57;;
11921;SDS011;6021;51.182;3.160;2022-10-31T05:42:55;8.93;;;7.90;;
11921;SDS011;6021;51.182;3.160;2022-10-31T05:45:26;8.93;;;7.27;;
11921;SDS011;6021;51.182;3.160;2022-10-31T05:48:00;8.00;;;6.90;;
11921;SDS011;6021;51.182;3.160;2022-10-31T05:50:26;9.80;;;8.40;;
11921;SDS011;6021;51.182;3.160;2022-10-31T05:52:57;8.87;;;6.87;;
11921;SDS011;6021;51.182;3.160;2022-10-31T05:55:29;7.43;;;6.80;;
11921;SDS011;6021;51.182;3.160;2022-10-31T05:57:59;7.63;;;6.70;;
11921;SDS011;6021;51.182;3.160;2022-10-31T06:00:27;9.70;;;7.50;;
11921;SDS011;6021;51.182;3.160;2022-10-31T06:02:59;7.30;;;6.63;;
11921;SDS011;6021;51.182;3.160;2022-10-31T06:05:29;7.97;;;6.23;;
11921;SDS011;6021;51.182;3.160;2022-10-31T06:07:57;7.03;;;6.33;;
11921;SDS011;6021;51.182;3.160;2022-10-31T06:10:26;7.93;;;7.00;;
11921;SDS011;6021;51.182;3.160;2022-10-31T06:12:55;8.83;;;7.40;;
11921;SDS011;6021;51.182;3.160;2022-10-31T06:15:23;8.80;;;7.73;;
11921;SDS011;6021;51.182;3.160;2022-10-31T06:17:59;11.70;;;8.50;;
11921;SDS011;6021;51.182;3.160;2022-10-31T06:20:31;10.20;;;8.80;;
11921;SDS011;6021;51.182;3.160;2022-10-31T06:23:01;11.80;;;9.80;;
11921;SDS011;6021;51.182;3.160;2022-10-31T06:25:30;13.33;;;9.73;;
11921;SDS011;6021;51.182;3.160;2022-10-31T06:27:59;11.60;;;9.87;;
11921;SDS011;6021;51.182;3.160;2022-10-31T06:30:27;9.63;;;8.73;;
11921;SDS011;6021;51.182;3.160;2022-10-31T06:33:01;10.20;;;8.13;;
11921;SDS011;6021;51.182;3.160;2022-10-31T06:35:30;8.27;;;7.47;;
11921;SDS011;6021;51.182;3.160;2022-10-31T06:37:58;8.67;;;7.77;;
11921;SDS011;6021;51.182;3.160;2022-10-31T06:40:27;8.90;;;8.00;;
11921;SDS011;6021;51.182;3.160;2022-10-31T06:42:58;11.07;;;9.20;;
11921;SDS011;6021;51.182;3.160;2022-10-31T06:45:27;10.87;;;8.57;;
11921;SDS011;6021;51.182;3.160;2022-10-31T06:47:56;9.60;;;7.57;;
11921;SDS011;6021;51.182;3.160;2022-10-31T06:50:25;11.87;;;8.57;;
11921;SDS011;6021;51.182;3.160;2022-10-31T06:52:57;10.50;;;9.40;;
11921;SDS011;6021;51.182;3.160;2022-10-31T06:55:26;11.57;;;10.10;;
11921;SDS011;6021;51.182;3.160;2022-10-31T06:57:55;11.23;;;9.87;;
11921;SDS011;6021;51.182;3.160;2022-10-31T07:00:25;12.37;;;10.37;;
11921;SDS011;6021;51.182;3.160;2022-10-31T07:02:59;12.80;;;11.10;;
11921;SDS011;6021;51.182;3.160;2022-10-31T07:05:29;12.20;;;10.90;;
11921;SDS011;6021;51.182;3.160;2022-10-31T07:07:59;12.30;;;10.77;;
11921;SDS011;6021;51.182;3.160;2022-10-31T07:10:31;10.43;;;9.43;;
11921;SDS011;6021;51.182;3.160;2022-10-31T07:13:01;12.07;;;10.63;;
11921;SDS011;6021;51.182;3.160;2022-10-31T07:15:33;11.93;;;9.57;;
11921;SDS011;6021;51.182;3.160;2022-10-31T07:18:02;10.20;;;9.20;;
11921;SDS011;6021;51.182;3.160;2022-10-31T07:20:31;10.30;;;8.47;;
11921;SDS011;6021;51.182;3.160;2022-10-31T07:23:00;11.60;;;8.77;;
11921;SDS011;6021;51.182;3.160;2022-10-31T07:25:28;9.37;;;8.37;;
11921;SDS011;6021;51.182;3.160;2022-10-31T07:27:57;10.60;;;9.50;;
11921;SDS011;6021;51.182;3.160;2022-10-31T07:30:25;13.83;;;10.50;;
11921;SDS011;6021;51.182;3.160;2022-10-31T07:32:54;11.80;;;10.67;;
11921;SDS011;6021;51.182;3.160;2022-10-31T07:35:23;11.70;;;10.30;;
11921;SDS011;6021;51.182;3.160;2022-10-31T07:37:52;11.47;;;9.77;;
11921;SDS011;6021;51.182;3.160;2022-10-31T07:40:21;13.10;;;10.03;;
11921;SDS011;6021;51.182;3.160;2022-10-31T07:42:51;13.50;;;10.77;;
11921;SDS011;6021;51.182;3.160;2022-10-31T07:45:20;15.77;;;12.40;;
11921;SDS011;6021;51.182;3.160;2022-10-31T07:47:52;15.70;;;12.97;;
11921;SDS011;6021;51.182;3.160;2022-10-31T07:50:25;13.80;;;12.40;;
11921;SDS011;6021;51.182;3.160;2022-10-31T07:52:57;14.97;;;12.40;;
11921;SDS011;6021;51.182;3.160;2022-10-31T07:55:27;13.53;;;12.10;;
11921;SDS011;6021;51.182;3.160;2022-10-31T07:58:00;13.87;;;11.87;;
11921;SDS011;6021;51.182;3.160;2022-10-31T08:00:33;15.70;;;12.63;;
11921;SDS011;6021;51.182;3.160;2022-10-31T08:03:07;15.53;;;13.73;;
11921;SDS011;6021;51.182;3.160;2022-10-31T08:05:36;16.80;;;14.37;;
11921;SDS011;6021;51.182;3.160;2022-10-31T08:08:07;20.17;;;15.23;;
11921;SDS011;6021;51.182;3.160;2022-10-31T08:10:36;17.53;;;15.37;;
11921;SDS011;6021;51.182;3.160;2022-10-31T08:13:08;20.70;;;16.37;;
11921;SDS011;6021;51.182;3.160;2022-10-31T08:15:38;18.37;;;16.23;;
11921;SDS011;6021;51.182;3.160;2022-10-31T08:18:16;19.40;;;16.37;;
11921;SDS011;6021;51.182;3.160;2022-10-31T08:20:47;19.20;;;16.87;;
11921;SDS011;6021;51.182;3.160;2022-10-31T08:23:11;21.67;;;16.77;;
11921;SDS011;6021;51.182;3.160;2022-10-31T08:25:40;20.83;;;16.87;;
11921;SDS011;6021;51.182;3.160;2022-10-31T08:28:10;19.50;;;16.43;;
11921;SDS011;6021;51.182;3.160;2022-10-31T08:30:39;21.07;;;17.10;;
11921;SDS011;6021;51.182;3.160;2022-10-31T08:33:12;20.10;;;16.73;;
11921;SDS011;6021;51.182;3.160;2022-10-31T08:35:43;25.03;;;16.93;;
11921;SDS011;6021;51.182;3.160;2022-10-31T08:38:12;21.63;;;17.17;;
11921;SDS011;6021;51.182;3.160;2022-10-31T08:40:40;23.40;;;17.30;;
11921;SDS011;6021;51.182;3.160;2022-10-31T08:43:12;19.33;;;16.23;;
11921;SDS011;6021;51.182;3.160;2022-10-31T08:45:43;18.20;;;16.23;;
11921;SDS011;6021;51.182;3.160;2022-10-31T08:48:14;20.70;;;16.97;;
11921;SDS011;6021;51.182;3.160;2022-10-31T08:50:43;18.60;;;15.80;;
11921;SDS011;6021;51.182;3.160;2022-10-31T08:53:16;16.47;;;14.33;;
11921;SDS011;6021;51.182;3.160;2022-10-31T08:55:46;18.10;;;15.20;;
11921;SDS011;6021;51.182;3.160;2022-10-31T08:58:18;15.50;;;13.83;;
11921;SDS011;6021;51.182;3.160;2022-10-31T09:00:47;16.23;;;13.70;;
11921;SDS011;6021;51.182;3.160;2022-10-31T09:03:21;18.03;;;14.27;;
11921;SDS011;6021;51.182;3.160;2022-10-31T09:05:49;15.00;;;13.43;;
11921;SDS011;6021;51.182;3.160;2022-10-31T09:08:17;16.67;;;13.60;;
11921;SDS011;6021;51.182;3.160;2022-10-31T09:10:46;16.83;;;13.90;;
11921;SDS011;6021;51.182;3.160;2022-10-31T09:13:20;17.13;;;14.07;;
11921;SDS011;6021;51.182;3.160;2022-10-31T09:15:46;16.80;;;13.80;;
11921;SDS011;6021;51.182;3.160;2022-10-31T09:18:17;18.93;;;14.53;;
11921;SDS011;6021;51.182;3.160;2022-10-31T09:20:47;16.27;;;14.33;;
11921;SDS011;6021;51.182;3.160;2022-10-31T09:23:16;17.43;;;14.13;;
11921;SDS011;6021;51.182;3.160;2022-10-31T09:25:49;14.87;;;12.30;;
11921;SDS011;6021;51.182;3.160;2022-10-31T09:28:20;14.57;;;11.90;;
11921;SDS011;6021;51.182;3.160;2022-10-31T09:30:50;13.57;;;11.57;;
11921;SDS011;6021;51.182;3.160;2022-10-31T09:33:20;15.50;;;12.10;;
11921;SDS011;6021;51.182;3.160;2022-10-31T09:35:48;14.33;;;12.93;;
11921;SDS011;6021;51.182;3.160;2022-10-31T09:38:19;15.73;;;12.63;;
11921;SDS011;6021;51.182;3.160;2022-10-31T09:52:24;14.53;;;12.07;;
11921;SDS011;6021;51.182;3.160;2022-10-31T09:55:08;14.33;;;12.07;;
11921;SDS011;6021;51.182;3.160;2022-10-31T09:57:43;15.07;;;12.93;;
11921;SDS011;6021;51.182;3.160;2022-10-31T10:00:17;14.03;;;11.60;;
11921;SDS011;6021;51.182;3.160;2022-10-31T10:02:59;12.70;;;10.77;;
11921;SDS011;6021;51.182;3.160;2022-10-31T10:05:41;15.63;;;11.20;;
11921;SDS011;6021;51.182;3.160;2022-10-31T10:08:23;12.37;;;9.70;;
11921;SDS011;6021;51.182;3.160;2022-10-31T10:10:51;13.30;;;10.43;;
11921;SDS011;6021;51.182;3.160;2022-10-31T10:21:08;13.60;;;10.60;;
11921;SDS011;6021;51.182;3.160;2022-10-31T10:26:29;14.43;;;11.67;;
11921;SDS011;6021;51.182;3.160;2022-10-31T10:28:57;12.57;;;10.80;;
11921;SDS011;6021;51.182;3.160;2022-10-31T10:31:31;15.50;;;10.87;;
11921;SDS011;6021;51.182;3.160;2022-10-31T10:34:19;12.03;;;10.53;;
11921;SDS011;6021;51.182;3.160;2022-10-31T10:37:02;11.53;;;10.03;;
11921;SDS011;6021;51.182;3.160;2022-10-31T10:39:40;11.77;;;10.17;;
11921;SDS011;6021;51.182;3.160;2022-10-31T10:42:13;12.17;;;10.17;;
11921;SDS011;6021;51.182;3.160;2022-10-31T10:45:13;13.80;;;10.90;;
11921;SDS011;6021;51.182;3.160;2022-10-31T10:47:58;12.30;;;10.60;;
11921;SDS011;6021;51.182;3.160;2022-10-31T10:50:38;11.90;;;9.90;;
11921;SDS011;6021;51.182;3.160;2022-10-31T10:53:07;11.50;;;10.20;;
11921;SDS011;6021;51.182;3.160;2022-10-31T10:55:39;12.17;;;9.60;;
11921;SDS011;6021;51.182;3.160;2022-10-31T10:58:20;10.73;;;9.63;;
11921;SDS011;6021;51.182;3.160;2022-10-31T11:00:48;10.00;;;9.07;;
11921;SDS011;6021;51.182;3.160;2022-10-31T11:03:19;12.07;;;9.40;;
11921;SDS011;6021;51.182;3.160;2022-10-31T11:05:54;11.00;;;9.27;;
11921;SDS011;6021;51.182;3.160;2022-10-31T11:08:31;13.50;;;7.73;;
11921;SDS011;6021;51.182;3.160;2022-10-31T11:13:32;11.63;;;7.80;;
11921;SDS011;6021;51.182;3.160;2022-10-31T11:16:10;10.73;;;7.67;;
11921;SDS011;6021;51.182;3.160;2022-10-31T11:18:41;9.87;;;7.00;;
11921;SDS011;6021;51.182;3.160;2022-10-31T11:21:21;9.10;;;6.60;;
11921;SDS011;6021;51.182;3.160;2022-10-31T11:24:07;7.80;;;6.20;;
11921;SDS011;6021;51.182;3.160;2022-10-31T11:26:42;11.57;;;6.20;;
11921;SDS011;6021;51.182;3.160;2022-10-31T11:29:14;9.47;;;5.97;;
11921;SDS011;6021;51.182;3.160;2022-10-31T11:31:44;8.83;;;5.83;;
11921;SDS011;6021;51.182;3.160;2022-10-31T11:34:15;7.67;;;5.80;;
11921;SDS011;6021;51.182;3.160;2022-10-31T11:36:45;9.07;;;6.13;;
11921;SDS011;6021;51.182;3.160;2022-10-31T11:39:15;8.33;;;5.43;;
11921;SDS011;6021;51.182;3.160;2022-10-31T11:41:47;7.83;;;5.67;;
11921;SDS011;6021;51.182;3.160;2022-10-31T11:44:19;12.50;;;6.53;;
11921;SDS011;6021;51.182;3.160;2022-10-31T11:46:54;7.80;;;6.07;;
11921;SDS011;6021;51.182;3.160;2022-10-31T11:49:37;10.27;;;6.43;;
11921;SDS011;6021;51.182;3.160;2022-10-31T11:52:12;8.97;;;7.07;;
11921;SDS011;6021;51.182;3.160;2022-10-31T11:57:31;7.97;;;6.80;;
11921;SDS011;6021;51.182;3.160;2022-10-31T12:07:47;10.23;;;6.60;;
11921;SDS011;6021;51.182;3.160;2022-10-31T12:10:16;8.33;;;6.43;;
11921;SDS011;6021;51.182;3.160;2022-10-31T12:15:22;9.63;;;7.03;;
11921;SDS011;6021;51.182;3.160;2022-10-31T12:20:41;9.37;;;7.13;;
11921;SDS011;6021;51.182;3.160;2022-10-31T12:28:59;10.60;;;7.93;;
11921;SDS011;6021;51.182;3.160;2022-10-31T12:40:06;10.30;;;7.50;;
11921;SDS011;6021;51.182;3.160;2022-10-31T12:48:24;8.65;;;6.80;;
11921;SDS011;6021;51.182;3.160;2022-10-31T12:56:53;10.50;;;7.63;;
11921;SDS011;6021;51.182;3.160;2022-10-31T13:07:34;9.37;;;7.90;;
11921;SDS011;6021;51.182;3.160;2022-10-31T13:26:03;11.73;;;8.37;;
11921;SDS011;6021;51.182;3.160;2022-10-31T13:34:19;13.07;;;8.03;;
11921;SDS011;6021;51.182;3.160;2022-10-31T13:42:56;11.53;;;8.33;;
11921;SDS011;6021;51.182;3.160;2022-10-31T13:50:40;11.57;;;7.87;;
11921;SDS011;6021;51.182;3.160;2022-10-31T13:55:50;13.37;;;8.77;;
11921;SDS011;6021;51.182;3.160;2022-10-31T13:58:37;12.30;;;8.73;;
11921;SDS011;6021;51.182;3.160;2022-10-31T14:01:16;14.13;;;9.07;;
11921;SDS011;6021;51.182;3.160;2022-10-31T14:03:47;13.70;;;8.80;;
11921;SDS011;6021;51.182;3.160;2022-10-31T14:06:37;11.43;;;8.53;;
11921;SDS011;6021;51.182;3.160;2022-10-31T14:14:23;15.03;;;9.53;;
11921;SDS011;6021;51.182;3.160;2022-10-31T14:16:55;14.67;;;9.57;;
11921;SDS011;6021;51.182;3.160;2022-10-31T14:19:24;15.93;;;9.60;;
11921;SDS011;6021;51.182;3.160;2022-10-31T14:27:03;15.73;;;10.90;;
11921;SDS011;6021;51.182;3.160;2022-10-31T14:29:34;17.07;;;10.80;;
11921;SDS011;6021;51.182;3.160;2022-10-31T14:32:06;16.33;;;10.53;;
11921;SDS011;6021;51.182;3.160;2022-10-31T14:34:42;15.03;;;10.77;;
11921;SDS011;6021;51.182;3.160;2022-10-31T14:42:48;16.42;;;11.63;;
11921;SDS011;6021;51.182;3.160;2022-10-31T14:53:18;17.20;;;12.87;;
11921;SDS011;6021;51.182;3.160;2022-10-31T14:55:51;16.50;;;12.17;;
11921;SDS011;6021;51.182;3.160;2022-10-31T14:58:24;17.00;;;12.13;;
11921;SDS011;6021;51.182;3.160;2022-10-31T15:03:39;17.37;;;13.33;;
11921;SDS011;6021;51.182;3.160;2022-10-31T15:06:16;21.60;;;14.53;;
11921;SDS011;6021;51.182;3.160;2022-10-31T15:11:13;21.50;;;13.90;;
11921;SDS011;6021;51.182;3.160;2022-10-31T15:16:14;19.97;;;14.90;;
11921;SDS011;6021;51.182;3.160;2022-10-31T15:18:58;18.83;;;14.47;;
11921;SDS011;6021;51.182;3.160;2022-10-31T15:21:24;21.00;;;14.47;;
11921;SDS011;6021;51.182;3.160;2022-10-31T15:26:34;22.23;;;14.30;;
11921;SDS011;6021;51.182;3.160;2022-10-31T15:34:43;21.27;;;14.77;;
11921;SDS011;6021;51.182;3.160;2022-10-31T15:37:14;21.40;;;14.83;;
11921;SDS011;6021;51.182;3.160;2022-10-31T15:42:19;20.30;;;14.63;;
11921;SDS011;6021;51.182;3.160;2022-10-31T15:47:46;20.37;;;14.73;;
11921;SDS011;6021;51.182;3.160;2022-10-31T15:50:27;20.53;;;14.60;;
11921;SDS011;6021;51.182;3.160;2022-10-31T16:03:21;23.20;;;15.30;;
11921;SDS011;6021;51.182;3.160;2022-10-31T16:05:54;19.23;;;14.73;;
11921;SDS011;6021;51.182;3.160;2022-10-31T16:11:29;22.37;;;14.83;;
11921;SDS011;6021;51.182;3.160;2022-10-31T16:14:05;21.67;;;16.47;;
11921;SDS011;6021;51.182;3.160;2022-10-31T16:16:43;21.33;;;16.13;;
11921;SDS011;6021;51.182;3.160;2022-10-31T16:19:21;23.00;;;17.00;;
11921;SDS011;6021;51.182;3.160;2022-10-31T16:21:55;21.47;;;16.60;;
11921;SDS011;6021;51.182;3.160;2022-10-31T16:24:29;28.10;;;20.60;;
11921;SDS011;6021;51.182;3.160;2022-10-31T16:27:22;20.17;;;16.80;;
11921;SDS011;6021;51.182;3.160;2022-10-31T16:29:36;21.17;;;15.97;;
11921;SDS011;6021;51.182;3.160;2022-10-31T16:32:22;22.90;;;17.03;;
11921;SDS011;6021;51.182;3.160;2022-10-31T16:34:57;19.77;;;16.23;;
11921;SDS011;6021;51.182;3.160;2022-10-31T16:37:27;26.93;;;18.70;;
11921;SDS011;6021;51.182;3.160;2022-10-31T16:39:56;26.67;;;17.83;;
11921;SDS011;6021;51.182;3.160;2022-10-31T16:42:24;24.17;;;17.50;;
11921;SDS011;6021;51.182;3.160;2022-10-31T16:44:54;28.07;;;18.40;;
11921;SDS011;6021;51.182;3.160;2022-10-31T16:47:22;28.87;;;20.37;;
11921;SDS011;6021;51.182;3.160;2022-10-31T16:49:50;24.27;;;17.87;;
11921;SDS011;6021;51.182;3.160;2022-10-31T16:52:19;23.03;;;17.90;;
11921;SDS011;6021;51.182;3.160;2022-10-31T16:54:47;24.87;;;17.93;;
11921;SDS011;6021;51.182;3.160;2022-10-31T16:57:17;24.03;;;18.33;;
11921;SDS011;6021;51.182;3.160;2022-10-31T16:59:48;26.97;;;18.87;;
11921;SDS011;6021;51.182;3.160;2022-10-31T17:02:20;28.93;;;20.13;;
11921;SDS011;6021;51.182;3.160;2022-10-31T17:04:48;28.33;;;18.93;;
11921;SDS011;6021;51.182;3.160;2022-10-31T17:07:17;27.03;;;18.13;;
11921;SDS011;6021;51.182;3.160;2022-10-31T17:09:45;29.80;;;23.00;;
11921;SDS011;6021;51.182;3.160;2022-10-31T17:12:14;28.37;;;23.83;;
11921;SDS011;6021;51.182;3.160;2022-10-31T17:14:46;30.10;;;22.80;;
11921;SDS011;6021;51.182;3.160;2022-10-31T17:17:16;32.00;;;23.60;;
11921;SDS011;6021;51.182;3.160;2022-10-31T17:19:45;30.97;;;23.37;;
11921;SDS011;6021;51.182;3.160;2022-10-31T17:22:13;32.23;;;22.87;;
11921;SDS011;6021;51.182;3.160;2022-10-31T17:24:42;27.57;;;22.87;;
11921;SDS011;6021;51.182;3.160;2022-10-31T17:27:10;27.10;;;22.53;;
11921;SDS011;6021;51.182;3.160;2022-10-31T17:29:39;31.13;;;23.03;;
11921;SDS011;6021;51.182;3.160;2022-10-31T17:32:07;25.83;;;22.13;;
11921;SDS011;6021;51.182;3.160;2022-10-31T17:34:35;29.53;;;21.83;;
11921;SDS011;6021;51.182;3.160;2022-10-31T17:37:04;26.10;;;21.73;;
11921;SDS011;6021;51.182;3.160;2022-10-31T17:39:33;27.60;;;22.03;;
11921;SDS011;6021;51.182;3.160;2022-10-31T17:42:01;27.53;;;20.47;;
11921;SDS011;6021;51.182;3.160;2022-10-31T17:44:29;29.23;;;21.53;;
11921;SDS011;6021;51.182;3.160;2022-10-31T17:46:57;25.27;;;20.63;;
11921;SDS011;6021;51.182;3.160;2022-10-31T17:49:26;28.73;;;20.87;;
11921;SDS011;6021;51.182;3.160;2022-10-31T17:51:54;25.37;;;20.20;;
11921;SDS011;6021;51.182;3.160;2022-10-31T17:54:22;26.13;;;20.17;;
11921;SDS011;6021;51.182;3.160;2022-10-31T17:56:52;24.27;;;19.50;;
11921;SDS011;6021;51.182;3.160;2022-10-31T17:59:20;24.23;;;19.70;;
11921;SDS011;6021;51.182;3.160;2022-10-31T18:01:49;22.37;;;18.57;;
11921;SDS011;6021;51.182;3.160;2022-10-31T18:04:17;22.60;;;17.53;;
11921;SDS011;6021;51.182;3.160;2022-10-31T18:06:47;22.67;;;16.97;;
11921;SDS011;6021;51.182;3.160;2022-10-31T18:09:16;21.23;;;16.67;;
11921;SDS011;6021;51.182;3.160;2022-10-31T18:11:45;20.47;;;15.83;;
11921;SDS011;6021;51.182;3.160;2022-10-31T18:14:13;17.70;;;14.13;;
11921;SDS011;6021;51.182;3.160;2022-10-31T18:16:41;17.70;;;14.30;;
11921;SDS011;6021;51.182;3.160;2022-10-31T18:19:11;18.17;;;13.60;;
11921;SDS011;6021;51.182;3.160;2022-10-31T18:21:41;18.50;;;13.60;;
11921;SDS011;6021;51.182;3.160;2022-10-31T18:24:12;16.20;;;13.00;;
11921;SDS011;6021;51.182;3.160;2022-10-31T18:26:40;16.20;;;12.63;;
11921;SDS011;6021;51.182;3.160;2022-10-31T18:29:09;16.00;;;13.17;;
11921;SDS011;6021;51.182;3.160;2022-10-31T18:31:38;19.13;;;13.33;;
11921;SDS011;6021;51.182;3.160;2022-10-31T18:34:06;15.47;;;12.23;;
11921;SDS011;6021;51.182;3.160;2022-10-31T18:36:34;19.13;;;10.97;;
11921;SDS011;6021;51.182;3.160;2022-10-31T18:39:03;16.57;;;11.23;;